createdAt,value
2023-04-18T00:00:44.154Z,6.10
2023-04-18T00:05:47.859Z,5.70
2023-04-18T00:08:19.188Z,5.70
2023-04-18T00:10:48.958Z,5.80
2023-04-18T00:13:19.326Z,5.80
2023-04-18T00:15:49.206Z,5.70
2023-04-18T00:18:18.963Z,5.70
2023-04-18T00:20:48.819Z,5.70
2023-04-18T00:23:21.496Z,5.80
2023-04-18T00:25:51.480Z,5.70
2023-04-18T00:28:21.407Z,5.80
2023-04-18T00:30:51.374Z,5.80
2023-04-18T00:33:21.050Z,5.80
2023-04-18T00:35:50.870Z,5.90
2023-04-18T00:38:22.019Z,5.80
2023-04-18T00:40:51.910Z,5.80
2023-04-18T00:43:23.076Z,5.70
2023-04-18T00:45:52.713Z,5.70
2023-04-18T00:48:24.456Z,5.70
2023-04-18T00:50:54.063Z,5.70
2023-04-18T00:53:25.042Z,5.60
2023-04-18T00:55:54.759Z,5.60
2023-04-18T00:58:25.182Z,5.60
2023-04-18T01:00:54.967Z,5.60
2023-04-18T01:03:27.065Z,5.60
2023-04-18T01:05:57.487Z,5.70
2023-04-18T01:08:28.846Z,5.60
2023-04-18T01:10:58.807Z,5.60
2023-04-18T01:13:28.414Z,5.60
2023-04-18T01:15:59.015Z,5.50
2023-04-18T01:18:31.505Z,5.50
2023-04-18T01:21:01.512Z,5.50
2023-04-18T01:23:33.474Z,5.60
2023-04-18T01:26:04.681Z,5.60
2023-04-18T01:28:37.105Z,5.60
2023-04-18T01:31:05.127Z,5.50
2023-04-18T01:33:35.152Z,5.40
2023-04-18T01:36:04.861Z,5.30
2023-04-18T01:38:34.740Z,5.30
2023-04-18T01:41:05.929Z,5.30
2023-04-18T01:43:35.781Z,5.30
2023-04-18T01:46:05.665Z,5.30
2023-04-18T01:48:35.276Z,5.30
2023-04-18T01:51:05.170Z,5.30
2023-04-18T01:53:36.599Z,5.30
2023-04-18T01:56:10.135Z,5.30
2023-04-18T01:58:41.588Z,5.20
2023-04-18T02:01:11.500Z,5.10
2023-04-18T02:03:41.549Z,5.10
2023-04-18T02:06:11.227Z,5.10
2023-04-18T02:08:41.029Z,5.10
2023-04-18T02:11:12.250Z,5.00
2023-04-18T02:13:42.019Z,5.00
2023-04-18T02:16:14.761Z,4.90
2023-04-18T02:18:45.748Z,5.00
2023-04-18T02:21:15.857Z,4.80
2023-04-18T02:23:45.401Z,4.80
2023-04-18T02:26:16.525Z,4.80
2023-04-18T02:28:46.319Z,4.70
2023-04-18T02:31:16.696Z,4.70
2023-04-18T02:33:47.443Z,4.70
2023-04-18T02:36:17.203Z,4.70
2023-04-18T02:38:46.998Z,4.70
2023-04-18T02:41:19.440Z,4.80
2023-04-18T02:43:49.646Z,4.70
2023-04-18T02:46:19.446Z,4.70
2023-04-18T02:48:49.210Z,4.80
2023-04-18T02:51:20.530Z,4.80
2023-04-18T02:53:54.845Z,4.80
2023-04-18T02:56:25.928Z,4.80
2023-04-18T02:58:55.737Z,4.70
2023-04-18T03:01:25.563Z,4.80
2023-04-18T03:03:55.523Z,4.80
2023-04-18T03:06:25.478Z,4.70
2023-04-18T03:08:55.191Z,4.70
2023-04-18T03:11:26.386Z,4.80
2023-04-18T03:13:56.617Z,4.80
2023-04-18T03:16:26.470Z,4.70
2023-04-18T03:18:56.448Z,4.70
2023-04-18T03:21:26.592Z,4.80
2023-04-18T03:23:56.341Z,4.80
2023-04-18T03:26:27.487Z,4.80
2023-04-18T03:28:57.162Z,4.80
2023-04-18T03:31:26.959Z,4.70
2023-04-18T03:33:56.689Z,4.70
2023-04-18T03:36:27.269Z,4.80
2023-04-18T03:38:55.435Z,4.70
2023-04-18T03:41:24.760Z,4.60
2023-04-18T03:43:54.651Z,4.70
2023-04-18T03:46:24.628Z,4.60
2023-04-18T03:48:54.183Z,4.70
2023-04-18T03:51:23.960Z,4.70
2023-04-18T03:53:53.691Z,4.70
2023-04-18T03:56:23.447Z,4.80
2023-04-18T03:58:54.508Z,4.80
2023-04-18T04:01:24.240Z,4.70
2023-04-18T04:03:54.342Z,4.70
2023-04-18T04:06:24.018Z,4.60
2023-04-18T04:08:53.882Z,4.50
2023-04-18T04:11:23.770Z,4.40
2023-04-18T04:13:54.879Z,4.30
2023-04-18T04:16:24.713Z,4.10
2023-04-18T04:18:54.470Z,4.00
2023-04-18T04:21:24.298Z,4.00
2023-04-18T04:23:54.079Z,4.10
2023-04-18T04:26:23.974Z,4.20
2023-04-18T04:28:55.082Z,4.20
2023-04-18T04:31:24.676Z,4.30
2023-04-18T04:33:54.529Z,4.40
2023-04-18T04:36:27.139Z,4.40
2023-04-18T04:38:56.960Z,4.50
2023-04-18T04:41:27.646Z,4.50
2023-04-18T04:43:59.459Z,4.60
2023-04-18T04:46:30.362Z,4.70
2023-04-18T04:49:00.251Z,4.80
2023-04-18T04:51:30.021Z,4.90
2023-04-18T04:53:59.777Z,4.90
2023-04-18T04:56:29.609Z,5.00
2023-04-18T04:59:00.855Z,5.00
2023-04-18T05:01:30.448Z,5.20
2023-04-18T05:04:00.409Z,5.20
2023-04-18T05:06:30.571Z,5.30
2023-04-18T05:09:01.033Z,5.30
2023-04-18T05:11:31.073Z,5.40
2023-04-18T05:14:01.968Z,5.40
2023-04-18T05:16:32.221Z,5.50
2023-04-18T05:19:02.624Z,5.60
2023-04-18T05:21:32.843Z,5.60
2023-04-18T05:24:02.642Z,5.60
2023-04-18T05:26:32.508Z,5.60
2023-04-18T05:29:03.633Z,5.70
2023-04-18T05:31:33.454Z,5.80
2023-04-18T05:34:03.378Z,5.90
2023-04-18T05:36:33.397Z,6.00
2023-04-18T05:39:03.288Z,6.10
2023-04-18T05:41:33.025Z,6.00
2023-04-18T05:44:05.757Z,6.10
2023-04-18T05:46:46.726Z,6.20
2023-04-18T05:49:16.484Z,6.30
2023-04-18T05:51:46.504Z,6.50
2023-04-18T05:54:16.581Z,6.40
2023-04-18T05:56:46.609Z,6.60
2023-04-18T05:59:17.668Z,6.70
2023-04-18T06:01:47.445Z,6.80
2023-04-18T06:04:17.644Z,6.90
2023-04-18T06:06:47.980Z,7.00
2023-04-18T06:09:17.528Z,7.10
2023-04-18T06:11:47.303Z,7.00
2023-04-18T06:14:18.404Z,7.10
2023-04-18T06:16:48.251Z,7.10
2023-04-18T06:19:17.990Z,7.20
2023-04-18T06:21:47.980Z,7.20
2023-04-18T06:24:17.763Z,7.30
2023-04-18T06:26:47.622Z,7.30
2023-04-18T06:29:18.958Z,7.40
2023-04-18T06:31:49.170Z,7.50
2023-04-18T06:34:19.227Z,7.90
2023-04-18T06:36:49.227Z,8.50
2023-04-18T06:39:19.093Z,9.00
2023-04-18T06:41:48.915Z,8.90
2023-04-18T06:44:20.149Z,8.90
2023-04-18T06:46:49.967Z,8.60
2023-04-18T06:49:21.937Z,8.30
2023-04-18T06:51:54.826Z,8.30
2023-04-18T06:54:24.606Z,8.20
2023-04-18T06:56:53.399Z,8.40
2023-04-18T06:59:24.510Z,8.50
2023-04-18T07:01:54.386Z,8.50
2023-04-18T07:04:23.960Z,8.70
2023-04-18T07:06:54.545Z,8.70
2023-04-18T07:09:24.417Z,8.90
2023-04-18T07:11:54.080Z,9.00
2023-04-18T07:14:26.364Z,9.40
2023-04-18T07:16:57.543Z,9.50
2023-04-18T07:19:27.282Z,9.40
2023-04-18T07:21:57.009Z,9.70
2023-04-18T07:24:26.894Z,9.80
2023-04-18T07:26:56.719Z,9.80
2023-04-18T07:29:27.932Z,10.00
2023-04-18T07:31:57.976Z,9.90
2023-04-18T07:34:29.917Z,10.00
2023-04-18T07:37:01.200Z,9.90
2023-04-18T07:39:31.903Z,10.10
2023-04-18T07:42:02.348Z,10.40
2023-04-18T07:44:36.024Z,10.50
2023-04-18T07:47:09.841Z,10.70
2023-04-18T07:49:39.881Z,10.60
2023-04-18T07:52:09.723Z,10.60
2023-04-18T07:54:39.527Z,10.50
2023-04-18T07:57:09.337Z,10.80
2023-04-18T07:59:40.951Z,10.90
2023-04-18T08:02:11.153Z,11.20
2023-04-18T08:04:41.457Z,11.30
2023-04-18T08:07:11.528Z,11.20
2023-04-18T08:09:41.369Z,11.40
2023-04-18T08:12:11.208Z,11.70
2023-04-18T08:14:42.267Z,11.90
2023-04-18T08:17:11.836Z,11.50
2023-04-18T08:19:41.759Z,11.10
2023-04-18T08:22:12.344Z,10.70
2023-04-18T08:24:54.068Z,11.00
2023-04-18T08:27:32.446Z,11.70
2023-04-18T08:30:04.765Z,11.90
2023-04-18T08:32:34.555Z,12.30
2023-04-18T08:35:04.587Z,12.50
2023-04-18T08:37:35.346Z,13.00
2023-04-18T08:40:06.774Z,13.10
2023-04-18T08:42:37.014Z,13.10
2023-04-18T08:45:09.481Z,13.40
2023-04-18T08:47:39.150Z,13.30
2023-04-18T08:50:09.419Z,13.50
2023-04-18T08:52:40.204Z,13.50
2023-04-18T08:55:10.242Z,13.80
2023-04-18T08:57:39.841Z,13.20
2023-04-18T09:00:12.973Z,13.50
2023-04-18T09:02:43.637Z,13.20
2023-04-18T09:05:15.449Z,13.40
2023-04-18T09:07:45.649Z,13.50
2023-04-18T09:10:25.232Z,13.30
2023-04-18T09:12:55.364Z,13.10
2023-04-18T09:15:29.111Z,13.00
2023-04-18T09:18:02.478Z,12.90
2023-04-18T09:20:35.544Z,13.10
2023-04-18T09:23:10.291Z,13.50
2023-04-18T09:25:46.801Z,13.60
2023-04-18T09:28:28.698Z,13.10
2023-04-18T09:31:01.628Z,13.30
2023-04-18T09:33:33.377Z,13.20
2023-04-18T09:36:19.705Z,13.20
2023-04-18T09:38:51.277Z,13.30
2023-04-18T09:41:23.160Z,13.30
2023-04-18T09:44:10.300Z,13.40
2023-04-18T09:46:46.040Z,13.60
2023-04-18T09:49:17.327Z,14.00
2023-04-18T09:51:48.071Z,14.40
2023-04-18T09:54:20.004Z,14.90
2023-04-18T09:56:51.720Z,15.40
2023-04-18T09:59:31.458Z,15.50
2023-04-18T10:02:03.388Z,15.50
2023-04-18T10:04:34.602Z,15.20
2023-04-18T10:07:04.909Z,14.90
2023-04-18T10:09:36.735Z,14.90
2023-04-18T10:12:06.744Z,15.40
2023-04-18T10:14:38.481Z,15.30
2023-04-18T10:17:09.499Z,15.00
2023-04-18T10:19:42.001Z,15.00
2023-04-18T10:22:12.512Z,15.30
2023-04-18T10:24:56.057Z,15.80
2023-04-18T10:28:00.330Z,15.80
2023-04-18T10:30:50.998Z,15.40
2023-04-18T10:33:30.969Z,15.50
2023-04-18T10:36:20.051Z,15.30
2023-04-18T10:38:51.813Z,15.20
2023-04-18T10:41:22.294Z,15.40
2023-04-18T10:44:18.085Z,15.30
2023-04-18T10:47:24.255Z,15.10
2023-04-18T10:50:06.113Z,15.20
2023-04-18T10:52:36.132Z,15.80
2023-04-18T10:55:16.435Z,15.70
2023-04-18T10:57:47.236Z,15.90
2023-04-18T11:00:16.917Z,16.20
2023-04-18T11:02:53.709Z,16.30
2023-04-18T11:05:25.277Z,16.20
2023-04-18T11:07:55.638Z,16.50
2023-04-18T11:10:26.760Z,16.50
2023-04-18T11:13:04.264Z,16.90
2023-04-18T11:15:37.175Z,17.40
2023-04-18T11:18:07.260Z,17.80
2023-04-18T11:20:47.987Z,17.30
2023-04-18T11:23:23.848Z,17.20
2023-04-18T11:36:01.540Z,15.00
2023-04-18T11:38:31.699Z,15.20
2023-04-18T11:41:03.092Z,15.20
2023-04-18T11:43:32.956Z,15.50
2023-04-18T11:46:02.628Z,15.80
2023-04-18T11:48:38.000Z,15.70
2023-04-18T11:51:28.938Z,15.80
2023-04-18T11:53:58.493Z,15.50
2023-04-18T11:56:28.347Z,15.20
2023-04-18T11:58:58.295Z,15.40
2023-04-18T12:01:28.481Z,15.90
2023-04-18T12:04:03.375Z,16.50
2023-04-18T12:06:50.757Z,16.60
2023-04-18T12:09:21.710Z,16.10
2023-04-18T12:12:00.895Z,16.10
2023-04-18T12:14:31.082Z,16.20
2023-04-18T12:17:03.870Z,16.00
2023-04-18T12:19:34.171Z,15.70
2023-04-18T12:22:06.574Z,15.40
2023-04-18T12:24:37.948Z,15.60
2023-04-18T12:27:07.630Z,15.70
2023-04-18T12:29:37.392Z,15.60
2023-04-18T12:32:08.058Z,15.50
2023-04-18T12:34:37.894Z,15.50
2023-04-18T12:37:09.962Z,15.60
2023-04-18T12:39:39.697Z,15.50
2023-04-18T12:42:09.506Z,15.50
2023-04-18T12:44:39.286Z,15.30
2023-04-18T12:47:09.648Z,15.00
2023-04-18T12:49:39.243Z,14.90
2023-04-18T12:52:10.322Z,15.00
2023-04-18T12:54:40.014Z,14.90
2023-04-18T12:57:09.849Z,15.00
2023-04-18T12:59:39.577Z,15.10
2023-04-18T13:02:09.409Z,15.20
2023-04-18T13:04:39.325Z,15.20
2023-04-18T13:07:10.575Z,15.30
2023-04-18T13:09:41.454Z,15.50
2023-04-18T13:12:11.629Z,15.90
2023-04-18T13:14:41.347Z,16.00
2023-04-18T13:17:12.182Z,15.70
2023-04-18T13:19:42.177Z,15.70
2023-04-18T13:22:13.163Z,16.10
2023-04-18T13:24:42.702Z,15.90
2023-04-18T13:27:12.538Z,15.60
2023-04-18T13:29:42.725Z,15.40
2023-04-18T13:32:13.130Z,15.30
2023-04-18T13:34:47.372Z,15.10
2023-04-18T13:37:18.655Z,15.40
2023-04-18T13:39:48.713Z,15.80
2023-04-18T13:42:19.335Z,16.10
2023-04-18T13:44:47.623Z,16.00
2023-04-18T13:47:17.519Z,16.00
2023-04-18T13:49:47.317Z,16.00
2023-04-18T13:52:18.479Z,16.00
2023-04-18T13:54:48.024Z,15.80
2023-04-18T13:57:17.859Z,15.50
2023-04-18T13:59:47.811Z,15.20
2023-04-18T14:02:17.794Z,15.10
2023-04-18T14:04:47.785Z,15.00
2023-04-18T14:07:18.871Z,14.80
2023-04-18T14:09:48.914Z,14.70
2023-04-18T14:12:18.668Z,14.70
2023-04-18T14:14:48.463Z,14.90
2023-04-18T14:17:18.311Z,14.90
2023-04-18T14:19:49.334Z,15.10
2023-04-18T14:22:20.219Z,15.00
2023-04-18T14:24:52.235Z,14.80
2023-04-18T14:27:22.233Z,14.60
2023-04-18T14:29:51.978Z,14.60
2023-04-18T14:32:21.796Z,14.70
2023-04-18T14:34:51.811Z,14.70
2023-04-18T14:37:23.023Z,14.70
2023-04-18T14:39:52.994Z,14.90
2023-04-18T14:42:22.855Z,14.80
2023-04-18T14:44:52.675Z,14.70
2023-04-18T14:47:24.271Z,14.70
2023-04-18T14:49:54.253Z,14.60
2023-04-18T14:52:25.474Z,15.00
2023-04-18T14:54:55.390Z,15.50
2023-04-18T14:57:25.508Z,15.80
2023-04-18T14:59:55.415Z,15.80
2023-04-18T15:02:25.074Z,15.40
2023-04-18T15:04:54.897Z,15.30
2023-04-18T15:07:26.721Z,15.00
2023-04-18T15:09:56.584Z,15.00
2023-04-18T15:12:26.454Z,15.00
2023-04-18T15:14:56.364Z,14.80
2023-04-18T15:17:26.216Z,15.00
2023-04-18T15:19:56.023Z,15.20
2023-04-18T15:22:27.109Z,14.90
2023-04-18T15:24:56.996Z,14.60
2023-04-18T15:27:26.840Z,14.40
2023-04-18T15:29:56.666Z,14.30
2023-04-18T15:32:27.115Z,14.40
2023-04-18T15:34:56.694Z,14.20
2023-04-18T15:37:28.071Z,14.10
2023-04-18T15:39:57.604Z,14.10
2023-04-18T15:42:29.081Z,14.10
2023-04-18T15:44:58.981Z,14.30
2023-04-18T15:47:28.920Z,14.20
2023-04-18T15:49:58.800Z,14.10
2023-04-18T15:52:30.063Z,14.10
2023-04-18T15:55:00.280Z,14.00
2023-04-18T15:57:30.242Z,14.00
2023-04-18T16:00:00.145Z,14.00
2023-04-18T16:02:30.070Z,13.80
2023-04-18T16:04:59.803Z,13.70
2023-04-18T16:07:30.773Z,13.70
2023-04-18T16:10:02.607Z,13.60
2023-04-18T16:12:32.539Z,13.60
2023-04-18T16:15:02.364Z,13.70
2023-04-18T16:17:32.220Z,13.70
2023-04-18T16:20:02.126Z,13.60
2023-04-18T16:22:33.240Z,13.70
2023-04-18T16:25:03.121Z,13.50
2023-04-18T16:27:33.537Z,13.30
2023-04-18T16:30:03.979Z,13.30
2023-04-18T16:32:33.779Z,13.20
2023-04-18T16:35:06.223Z,13.10
2023-04-18T16:37:37.200Z,13.00
2023-04-18T16:40:09.754Z,12.90
2023-04-18T16:42:40.989Z,12.90
2023-04-18T16:45:11.954Z,12.70
2023-04-18T16:47:41.883Z,12.70
2023-04-18T16:50:12.206Z,12.40
2023-04-18T16:52:43.665Z,12.50
2023-04-18T16:55:13.537Z,12.40
2023-04-18T16:57:43.264Z,12.50
2023-04-18T17:00:15.306Z,12.40
2023-04-18T17:02:45.228Z,12.30
2023-04-18T17:05:14.970Z,12.30
2023-04-18T17:07:49.694Z,12.30
2023-04-18T17:10:19.690Z,12.30
2023-04-18T17:12:50.111Z,12.00
2023-04-18T17:15:21.143Z,12.00
2023-04-18T17:17:51.255Z,12.10
2023-04-18T17:20:21.325Z,11.90
2023-04-18T17:22:52.244Z,12.00
2023-04-18T17:25:22.107Z,11.90
2023-04-18T17:27:51.984Z,12.00
2023-04-18T17:30:21.774Z,12.00
2023-04-18T17:32:51.649Z,12.00
2023-04-18T17:35:21.836Z,11.90
2023-04-18T17:37:54.913Z,11.80
2023-04-18T17:40:24.808Z,11.80
2023-04-18T17:42:54.666Z,11.80
2023-04-18T17:45:25.893Z,11.80
2023-04-18T17:47:57.476Z,11.80
2023-04-18T17:50:27.424Z,11.70
2023-04-18T17:52:58.483Z,11.60
2023-04-18T17:55:28.315Z,11.60
2023-04-18T17:57:58.426Z,11.70
2023-04-18T18:00:28.476Z,11.70
2023-04-18T18:03:00.493Z,11.70
2023-04-18T18:05:31.165Z,11.70
2023-04-18T18:08:02.581Z,11.60
2023-04-18T18:10:32.949Z,11.60
2023-04-18T18:13:02.792Z,11.70
2023-04-18T18:15:32.916Z,11.70
2023-04-18T18:18:02.935Z,11.70
2023-04-18T18:20:32.547Z,11.70
2023-04-18T18:23:03.541Z,11.70
2023-04-18T18:25:36.329Z,11.60
2023-04-18T18:28:07.127Z,11.60
2023-04-18T18:30:38.003Z,11.50
2023-04-18T18:33:07.885Z,11.50
2023-04-18T18:35:37.684Z,11.40
2023-04-18T18:38:08.921Z,11.60
2023-04-18T18:40:38.733Z,11.60
2023-04-18T18:43:08.581Z,11.50
2023-04-18T18:45:38.618Z,11.50
2023-04-18T18:48:09.964Z,11.30
2023-04-18T18:50:41.828Z,11.40
2023-04-18T18:53:15.180Z,11.40
2023-04-18T18:55:45.023Z,11.30
2023-04-18T18:58:14.860Z,11.30
2023-04-18T19:00:44.512Z,11.30
2023-04-18T19:03:14.352Z,11.40
2023-04-18T19:05:44.020Z,11.40
2023-04-18T19:08:15.468Z,11.40
2023-04-18T19:10:45.945Z,11.40
2023-04-18T19:13:15.897Z,11.30
2023-04-18T19:15:45.769Z,11.30
2023-04-18T19:18:15.437Z,11.20
2023-04-18T19:20:45.489Z,11.20
2023-04-18T19:23:16.870Z,11.20
2023-04-18T19:25:46.749Z,11.20
2023-04-18T19:28:18.247Z,11.20
2023-04-18T19:30:47.850Z,11.20
2023-04-18T19:33:17.673Z,11.10
2023-04-18T19:35:47.453Z,11.10
2023-04-18T19:38:18.643Z,11.10
2023-04-18T19:40:48.366Z,11.20
2023-04-18T19:43:18.174Z,11.30
2023-04-18T19:45:47.955Z,11.20
2023-04-18T19:48:17.781Z,11.20
2023-04-18T19:50:47.656Z,11.20
2023-04-18T19:53:20.476Z,11.20
2023-04-18T19:55:50.219Z,11.20
2023-04-18T19:58:35.990Z,11.30
2023-04-18T20:01:06.043Z,11.20
2023-04-18T20:03:36.468Z,11.30
2023-04-18T20:06:06.792Z,11.30
2023-04-18T20:08:41.721Z,11.20
2023-04-18T20:11:12.544Z,11.10
2023-04-18T20:13:42.540Z,11.00
2023-04-18T20:16:12.732Z,11.00
2023-04-18T20:18:44.195Z,10.90
2023-04-18T20:21:14.084Z,11.00
2023-04-18T20:23:45.274Z,10.90
2023-04-18T20:26:14.870Z,11.10
2023-04-18T20:28:44.676Z,11.00
2023-04-18T20:31:14.494Z,11.00
2023-04-18T20:33:44.042Z,11.10
2023-04-18T20:36:14.001Z,11.00
2023-04-18T20:38:45.345Z,11.00
2023-04-18T20:41:18.227Z,10.90
2023-04-18T20:43:47.997Z,11.00
2023-04-18T20:46:17.851Z,11.00
2023-04-18T20:48:47.628Z,10.90
2023-04-18T20:51:17.528Z,10.90
2023-04-18T20:53:48.759Z,10.90
2023-04-18T20:56:18.580Z,10.80
2023-04-18T20:58:48.370Z,10.80
2023-04-18T21:01:18.255Z,10.80
2023-04-18T21:03:48.111Z,10.80
2023-04-18T21:06:19.075Z,10.80
2023-04-18T21:08:49.959Z,10.80
2023-04-18T21:11:19.707Z,10.80
2023-04-18T21:13:49.457Z,10.70
2023-04-18T21:16:19.462Z,10.80
2023-04-18T21:18:49.370Z,10.70
2023-04-18T21:21:19.136Z,10.70
2023-04-18T21:23:50.361Z,10.80
2023-04-18T21:26:20.129Z,10.80
2023-04-18T21:28:56.094Z,10.70
2023-04-18T21:31:26.689Z,10.80
2023-04-18T21:33:57.819Z,10.80
2023-04-18T21:36:28.313Z,10.70
2023-04-18T21:39:00.815Z,10.70
2023-04-18T21:41:30.743Z,10.70
2023-04-18T21:44:00.286Z,10.70
2023-04-18T21:46:30.263Z,10.80
2023-04-18T21:48:59.865Z,10.70
2023-04-18T21:51:29.649Z,10.70
2023-04-18T21:54:00.973Z,10.60
2023-04-18T21:56:30.467Z,10.60
2023-04-18T21:59:00.462Z,10.60
2023-04-18T22:01:30.026Z,10.60
2023-04-18T22:03:59.951Z,10.60
2023-04-18T22:06:30.680Z,10.60
2023-04-18T22:09:01.893Z,10.60
2023-04-18T22:11:32.203Z,10.60
2023-04-18T22:14:01.876Z,10.60
2023-04-18T22:16:33.349Z,10.70
2023-04-18T22:19:03.672Z,10.60
2023-04-18T22:21:33.625Z,10.60
2023-04-18T22:24:04.790Z,10.60
2023-04-18T22:26:34.534Z,10.60
2023-04-18T22:29:04.255Z,10.60
2023-04-18T22:31:34.029Z,10.50
2023-04-18T22:34:04.718Z,10.60
2023-04-18T22:36:34.212Z,10.50
2023-04-18T22:39:06.132Z,10.50
2023-04-18T22:41:35.713Z,10.50
2023-04-18T22:44:05.538Z,10.40
2023-04-18T22:46:35.228Z,10.50
2023-04-18T22:49:05.487Z,10.50
2023-04-18T22:51:35.264Z,10.50
2023-04-18T22:54:06.343Z,10.50
2023-04-18T22:56:36.113Z,10.40
2023-04-18T22:59:05.886Z,10.40
2023-04-18T23:01:35.664Z,10.40
2023-04-18T23:04:05.645Z,10.40
2023-04-18T23:06:36.617Z,10.40
2023-04-18T23:09:10.280Z,10.40
2023-04-18T23:11:40.046Z,10.40
2023-04-18T23:14:10.022Z,10.40
2023-04-18T23:16:40.134Z,10.50
2023-04-18T23:19:10.899Z,10.50
2023-04-18T23:21:40.743Z,10.40
2023-04-18T23:24:12.794Z,10.40
2023-04-18T23:26:42.404Z,10.40
2023-04-18T23:29:12.134Z,10.40
2023-04-18T23:31:41.886Z,10.40
2023-04-18T23:34:12.925Z,10.40
2023-04-18T23:36:42.539Z,10.30
2023-04-18T23:39:13.623Z,10.40
2023-04-18T23:41:43.368Z,10.40
2023-04-18T23:44:13.329Z,10.40
2023-04-18T23:46:42.999Z,10.30
2023-04-18T23:49:12.814Z,10.30
2023-04-18T23:51:42.619Z,10.30
2023-04-18T23:54:13.830Z,10.30
2023-04-18T23:56:43.827Z,10.40
2023-04-18T23:59:13.613Z,10.40
